»·PEaware :: N733TR KKLS-0S0

N733TR :: KKLS-0S0

FLIGHT INFORMATION

Flight Status: Arrived
Operator: Privately registered:
United States
More flights under this callsign
Pilot: Jonathan B. (787)
Aircraft: Unknown
(LEG2)
More flights by this aircraft type
Origin: KKLS Kelso-Longview
United States
Destination: 0S0 Lind
United States
More flights between these airports :: More routes between these airports
Route:
File this flight plan on PilotEdge
Remarks: wa alphabet
Altitude:
(Current/Filed)
13,500ft
Speed:
(Current/Filed)
220kts
Departed: 07-Sep-20 02:32 PM
Arrived: 07-Sep-20 03:24 PM
Distance/Time
Traveled:
185nm/0:52
Distance/Time
To Go:
Arrived

Flight Plot

Page will automatically refresh every two minutes.

Flight plan parsing failed; only flown route is shown


Map Options




Map Legend


Flown Route
Filed Route
Departure Airport
Arrival Airport
Navaid (VOR, NDB)
Fix

Horizontal Profiles

Position Reports

Time Latitude Longitude Heading Altitude Ground
Speed
07-Sep-20 14:25 46.120668 -122.898545 141 22ft 0kts
07-Sep-20 14:26 46.120856 -122.898534 281 22ft 10kts
07-Sep-20 14:27 46.118080 -122.897441 108 22ft 6kts
07-Sep-20 14:28 46.116566 -122.895600 139 22ft 18kts
07-Sep-20 14:29 46.113739 -122.892446 199 22ft 0kts
07-Sep-20 14:30 46.113596 -122.892565 224 22ft 7kts
07-Sep-20 14:31 46.128702 -122.909910 355 1384ft 109kts
07-Sep-20 14:32 46.119399 -122.871549 111 3467ft 192kts
07-Sep-20 14:33 46.122031 -122.797704 68 5794ft 187kts
07-Sep-20 14:34 46.141381 -122.732886 56 8297ft 165kts
07-Sep-20 14:35 46.171180 -122.684364 24 10246ft 162kts
07-Sep-20 14:36 46.190283 -122.623844 71 11636ft 186kts
07-Sep-20 14:37 46.202659 -122.539775 75 11792ft 225kts
07-Sep-20 14:38 46.216716 -122.444873 73 11648ft 245kts
07-Sep-20 14:39 46.239395 -122.351488 68 11782ft 248kts
07-Sep-20 14:40 46.260634 -122.254495 70 11648ft 254kts
07-Sep-20 14:41 46.279337 -122.154523 74 11510ft 257kts
07-Sep-20 14:42 46.295744 -122.054323 71 11509ft 253kts
07-Sep-20 14:43 46.309913 -121.953988 76 11822ft 243kts
07-Sep-20 14:44 46.324330 -121.859974 57 11823ft 255kts
07-Sep-20 14:46 46.360970 -121.775712 56 10465ft 229kts
07-Sep-20 14:47 46.388369 -121.702853 59 11231ft 192kts
07-Sep-20 14:48 46.407415 -121.636570 89 13215ft 175kts
07-Sep-20 14:49 46.400936 -121.571634 90 15198ft 152kts
07-Sep-20 14:50 46.395312 -121.518016 79 17097ft 121kts
07-Sep-20 14:51 46.394153 -121.459391 80 17554ft 183kts
07-Sep-20 14:52 46.397666 -121.376852 77 17567ft 220kts
07-Sep-20 14:53 46.404467 -121.286133 77 17608ft 234kts
07-Sep-20 14:54 46.411852 -121.191124 77 17645ft 239kts
07-Sep-20 14:55 46.417758 -121.094005 77 17647ft 245kts
07-Sep-20 14:56 46.424443 -120.994450 73 17647ft 252kts
07-Sep-20 14:57 46.432664 -120.892062 71 17647ft 259kts
07-Sep-20 14:58 46.441911 -120.787536 71 17647ft 263kts
07-Sep-20 14:58 46.450497 -120.699940 69 17648ft 262kts
07-Sep-20 15:00 46.464845 -120.576820 69 17465ft 266kts
07-Sep-20 15:01 46.477233 -120.471301 69 17464ft 264kts
07-Sep-20 15:02 46.489457 -120.366637 69 17465ft 263kts
07-Sep-20 15:03 46.501591 -120.262567 69 17462ft 263kts
07-Sep-20 15:03 46.511796 -120.175015 69 17462ft 263kts
07-Sep-20 15:04 46.527704 -120.072525 65 17435ft 260kts
07-Sep-20 15:06 46.567588 -119.977239 53 17435ft 249kts
07-Sep-20 15:07 46.595806 -119.884585 55 17438ft 251kts
07-Sep-20 15:07 46.619259 -119.806642 55 17441ft 251kts
07-Sep-20 15:08 46.647198 -119.713484 55 17438ft 252kts
07-Sep-20 15:09 46.676556 -119.615109 56 16478ft 264kts
07-Sep-20 15:10 46.705240 -119.518655 57 14761ft 257kts
07-Sep-20 15:11 46.733457 -119.423487 58 13051ft 256kts
07-Sep-20 15:12 46.761093 -119.329905 59 11371ft 256kts
07-Sep-20 15:13 46.788999 -119.235067 60 9776ft 250kts
07-Sep-20 15:14 46.815901 -119.143403 60 8399ft 241kts
07-Sep-20 15:15 46.841979 -119.054096 60 7026ft 236kts
07-Sep-20 15:16 46.867540 -118.966248 60 5650ft 230kts
07-Sep-20 15:17 46.892323 -118.880798 61 4275ft 225kts
07-Sep-20 15:18 46.914672 -118.803332 61 3373ft 183kts
07-Sep-20 15:19 46.933680 -118.737376 61 2542ft 171kts
07-Sep-20 15:20 46.947998 -118.686373 65 2449ft 102kts
07-Sep-20 15:21 46.955869 -118.647964 55 2478ft 97kts
07-Sep-20 15:22 46.967919 -118.613206 57 1926ft 96kts
07-Sep-20 15:23 46.975886 -118.590211 60 1508ft 4kts
07-Sep-20 15:24 46.977085 -118.586560 62 1508ft 15kts
07-Sep-20 15:25 46.978440 -118.581825 89 1508ft 0kts

Navigation Log

Ident Type
Flight plan parsing failed, navigation log unavailable